Time;durP1;ratioP1;P1;durP2;ratioP2;P2;SDS_P1;SDS_P2;PMS_P1;PMS_P2;Temp;Humidity;BMP_temperature;BMP_pressure;BME280_temperature;BME280_humidity;BME280_pressure;Samples;Min_cycle;Max_cycle;Signal;HPM_P1;HPM_P2
2023/12/30 00:01:35;;;;;;;4.00;1.70;;;7.90;99.90;;;;;;5048622;28;20254;-83
2023/12/30 00:04:00;;;;;;;3.57;1.60;;;8.00;99.90;;;;;;5032261;28;20177;-83
2023/12/30 00:06:26;;;;;;;2.30;1.70;;;7.90;99.90;;;;;;5046059;28;20174;-81
2023/12/30 00:08:51;;;;;;;2.60;1.73;;;7.90;99.90;;;;;;5033745;28;20197;-82
2023/12/30 00:11:17;;;;;;;3.47;1.77;;;7.90;99.90;;;;;;5032193;28;20173;-83
2023/12/30 00:13:42;;;;;;;1.93;1.40;;;7.90;99.90;;;;;;5037623;28;20194;-82
2023/12/30 00:16:10;;;;;;;1.90;1.33;;;7.90;99.90;;;;;;5043118;28;20210;-83
2023/12/30 00:18:36;;;;;;;1.53;1.30;;;7.90;99.90;;;;;;5086341;22;20208;-81
2023/12/30 00:21:01;;;;;;;1.70;1.40;;;7.90;99.90;;;;;;5015027;28;20181;-80
2023/12/30 00:23:27;;;;;;;2.63;1.40;;;7.80;99.90;;;;;;5016934;28;20177;-79
2023/12/30 00:25:54;;;;;;;5.67;1.67;;;7.80;99.90;;;;;;5035494;28;20192;-80
2023/12/30 00:28:20;;;;;;;2.03;1.30;;;7.90;99.90;;;;;;5036831;28;20200;-80
2023/12/30 00:30:45;;;;;;;2.40;1.30;;;8.00;99.90;;;;;;5035253;28;20183;-80
2023/12/30 00:33:11;;;;;;;2.67;1.50;;;8.00;99.90;;;;;;5036220;28;20562;-80
2023/12/30 00:35:37;;;;;;;2.33;1.40;;;8.00;99.90;;;;;;5036784;28;20200;-80
2023/12/30 00:38:02;;;;;;;2.73;1.40;;;8.00;99.90;;;;;;5018233;28;20260;-80
2023/12/30 00:40:28;;;;;;;2.13;1.33;;;8.00;99.90;;;;;;5015093;28;20194;-79
2023/12/30 00:42:53;;;;;;;2.30;1.50;;;8.00;99.90;;;;;;5016989;28;20205;-80
2023/12/30 00:45:19;;;;;;;3.00;1.40;;;8.00;99.90;;;;;;5015345;28;20189;-79
2023/12/30 00:47:45;;;;;;;3.00;1.23;;;8.00;99.90;;;;;;5013940;28;20274;-80
2023/12/30 00:50:10;;;;;;;2.77;1.40;;;7.90;99.90;;;;;;5016026;28;20194;-79
2023/12/30 00:52:36;;;;;;;3.40;1.40;;;7.90;99.90;;;;;;5019506;28;20251;-79
2023/12/30 00:55:02;;;;;;;2.07;1.40;;;7.90;99.90;;;;;;5036606;28;20549;-80
2023/12/30 00:57:27;;;;;;;1.93;1.13;;;7.90;99.90;;;;;;5036780;28;20201;-80
2023/12/30 00:59:53;;;;;;;2.63;1.37;;;8.00;99.90;;;;;;5034630;28;20242;-80
2023/12/30 01:02:18;;;;;;;3.00;1.77;;;7.90;99.90;;;;;;5018442;28;20185;-79
2023/12/30 01:04:44;;;;;;;3.03;1.40;;;7.90;99.90;;;;;;5015251;28;20235;-80
2023/12/30 01:07:09;;;;;;;2.30;1.40;;;7.90;99.90;;;;;;5016271;28;20217;-80
2023/12/30 01:09:35;;;;;;;1.60;1.40;;;7.90;99.90;;;;;;5016226;28;20205;-80
2023/12/30 01:12:00;;;;;;;2.57;1.30;;;7.90;99.90;;;;;;5014669;28;20201;-79
2023/12/30 01:14:26;;;;;;;2.40;1.33;;;7.80;99.90;;;;;;5016123;28;20175;-79
2023/12/30 01:16:52;;;;;;;3.00;1.30;;;7.90;99.90;;;;;;5014463;28;20201;-79
2023/12/30 01:19:17;;;;;;;2.33;1.40;;;7.90;99.90;;;;;;5015179;28;20235;-79
2023/12/30 01:21:43;;;;;;;1.47;1.10;;;7.90;99.90;;;;;;5015593;28;20203;-80
2023/12/30 01:24:10;;;;;;;2.00;1.20;;;7.90;99.90;;;;;;5015346;28;20181;-79
2023/12/30 01:26:38;;;;;;;2.77;1.43;;;7.90;99.90;;;;;;5015019;28;20648;-80
2023/12/30 01:29:03;;;;;;;2.03;1.30;;;7.80;99.90;;;;;;5014174;28;20624;-79
2023/12/30 01:31:29;;;;;;;3.73;1.33;;;7.90;99.90;;;;;;5012937;28;20650;-78
2023/12/30 01:33:55;;;;;;;2.17;1.40;;;7.90;99.90;;;;;;5014778;28;20212;-78
2023/12/30 01:36:20;;;;;;;1.33;1.10;;;7.90;99.90;;;;;;5015269;28;20171;-79
2023/12/30 01:38:46;;;;;;;2.63;1.23;;;7.90;99.90;;;;;;5013880;28;20200;-79
2023/12/30 01:41:12;;;;;;;3.17;1.20;;;7.80;99.90;;;;;;5014066;28;20181;-79
2023/12/30 01:43:37;;;;;;;4.40;1.37;;;7.80;99.90;;;;;;5015988;28;20235;-79
2023/12/30 01:46:09;;;;;;;4.70;1.47;;;7.70;99.90;;;;;;5015235;28;20182;-79
2023/12/30 01:48:35;;;;;;;1.43;1.30;;;7.80;99.90;;;;;;5015964;28;20195;-79
2023/12/30 01:51:02;;;;;;;3.60;1.20;;;7.70;99.90;;;;;;5015211;28;20181;-79
2023/12/30 01:53:30;;;;;;;2.07;1.30;;;7.80;99.90;;;;;;5015609;28;20199;-79
2023/12/30 01:55:57;;;;;;;2.07;1.20;;;7.80;99.90;;;;;;5014288;28;20214;-79
2023/12/30 01:58:23;;;;;;;1.83;1.20;;;7.80;99.90;;;;;;5014486;28;20169;-79
2023/12/30 02:00:51;;;;;;;1.87;1.20;;;7.80;99.90;;;;;;5014460;28;20248;-80
2023/12/30 02:03:17;;;;;;;3.87;1.60;;;7.80;99.90;;;;;;5015098;28;20224;-79
2023/12/30 02:05:44;;;;;;;2.67;1.33;;;7.90;99.90;;;;;;5014447;28;20192;-78
2023/12/30 02:08:10;;;;;;;2.40;1.47;;;7.90;99.90;;;;;;5014537;28;20208;-79
2023/12/30 02:10:36;;;;;;;3.43;1.30;;;7.90;99.90;;;;;;5013715;28;20209;-79
2023/12/30 02:13:02;;;;;;;2.17;1.40;;;7.90;99.90;;;;;;5014562;28;20234;-80
2023/12/30 02:15:27;;;;;;;3.57;1.53;;;7.90;99.90;;;;;;5015528;28;20211;-79
2023/12/30 02:17:56;;;;;;;3.30;1.50;;;7.90;99.90;;;;;;5014496;28;20183;-80
2023/12/30 02:20:22;;;;;;;3.13;1.53;;;7.80;99.90;;;;;;5018548;28;20221;-79
2023/12/30 02:22:48;;;;;;;2.53;1.37;;;7.90;99.90;;;;;;5019018;28;20292;-79
2023/12/30 02:25:14;;;;;;;2.60;1.43;;;7.90;99.90;;;;;;5017330;28;20215;-79
2023/12/30 02:27:42;;;;;;;4.80;1.43;;;7.90;99.90;;;;;;5019074;28;20198;-79
2023/12/30 02:30:08;;;;;;;3.57;1.30;;;7.90;99.90;;;;;;5017553;28;20204;-79
2023/12/30 02:32:34;;;;;;;3.27;1.30;;;7.80;99.90;;;;;;5018884;28;20249;-80
2023/12/30 02:35:00;;;;;;;4.20;1.50;;;7.90;99.90;;;;;;5019287;28;20177;-80
2023/12/30 02:37:25;;;;;;;3.73;1.30;;;7.80;99.90;;;;;;5018919;28;20190;-79
2023/12/30 02:39:51;;;;;;;3.77;1.17;;;7.80;99.90;;;;;;5017196;28;20192;-79
2023/12/30 02:42:16;;;;;;;3.10;1.20;;;7.80;99.90;;;;;;5018874;28;20175;-79
2023/12/30 02:44:42;;;;;;;2.43;1.33;;;7.80;99.90;;;;;;5017876;28;20219;-80
2023/12/30 02:47:07;;;;;;;3.87;1.40;;;7.80;99.90;;;;;;5018632;28;20177;-80
2023/12/30 02:49:33;;;;;;;2.90;1.30;;;7.80;99.90;;;;;;5017036;28;20199;-80
2023/12/30 02:51:59;;;;;;;3.30;1.40;;;7.80;99.90;;;;;;5017862;28;20203;-80
2023/12/30 02:54:25;;;;;;;4.57;1.50;;;7.70;99.90;;;;;;5017175;28;20176;-79
2023/12/30 02:56:51;;;;;;;3.53;1.30;;;7.70;99.90;;;;;;5018224;28;20319;-79
2023/12/30 02:59:16;;;;;;;3.97;1.30;;;7.80;99.90;;;;;;5017942;28;20232;-79
2023/12/30 03:01:42;;;;;;;2.03;1.30;;;7.80;99.90;;;;;;5017073;28;20179;-80
2023/12/30 03:04:08;;;;;;;2.00;1.40;;;7.70;99.90;;;;;;5018510;28;20195;-79
2023/12/30 03:06:33;;;;;;;3.17;1.70;;;7.70;99.90;;;;;;5017068;28;20257;-79
2023/12/30 03:08:59;;;;;;;2.50;1.40;;;7.70;99.90;;;;;;5019011;28;20200;-79
2023/12/30 03:11:25;;;;;;;3.27;1.37;;;7.70;99.90;;;;;;5017721;28;20175;-80
2023/12/30 03:13:51;;;;;;;4.57;1.50;;;7.70;99.90;;;;;;5017612;28;20251;-79
2023/12/30 03:16:18;;;;;;;1.90;1.07;;;7.70;99.90;;;;;;5018296;28;20177;-80
2023/12/30 03:18:44;;;;;;;3.67;1.40;;;7.70;99.90;;;;;;5017595;28;20204;-79
2023/12/30 03:21:13;;;;;;;3.17;1.30;;;7.70;99.90;;;;;;5018837;28;20170;-79
2023/12/30 03:23:39;;;;;;;3.67;1.40;;;7.60;99.90;;;;;;5018511;28;20187;-80
2023/12/30 03:26:06;;;;;;;5.57;1.73;;;7.70;99.90;;;;;;5016878;28;20175;-80
2023/12/30 03:28:32;;;;;;;3.10;1.47;;;7.70;99.90;;;;;;5017915;28;20187;-79
2023/12/30 03:30:57;;;;;;;2.67;1.47;;;7.60;99.90;;;;;;5018128;28;20175;-80
2023/12/30 03:33:24;;;;;;;3.03;1.50;;;7.60;99.90;;;;;;5016593;28;20564;-80
2023/12/30 03:35:49;;;;;;;1.67;1.40;;;7.60;99.90;;;;;;5016382;28;20659;-79
2023/12/30 03:38:15;;;;;;;3.50;1.40;;;7.60;99.90;;;;;;5017609;28;20176;-80
2023/12/30 03:40:41;;;;;;;3.00;1.33;;;7.50;99.90;;;;;;5017413;28;20172;-79
2023/12/30 03:43:06;;;;;;;3.13;1.20;;;7.50;99.90;;;;;;5016390;28;20611;-79
2023/12/30 03:45:32;;;;;;;4.20;1.37;;;7.50;99.90;;;;;;5016527;28;20170;-79
2023/12/30 03:47:57;;;;;;;6.07;1.30;;;7.50;99.90;;;;;;5016365;28;20182;-79
2023/12/30 03:50:23;;;;;;;4.73;1.80;;;7.50;99.90;;;;;;5016734;28;20288;-79
2023/12/30 03:52:50;;;;;;;3.43;1.50;;;7.40;99.90;;;;;;5016902;28;20195;-79
2023/12/30 03:55:15;;;;;;;3.23;1.40;;;7.40;99.90;;;;;;5016400;28;20171;-79
2023/12/30 03:57:41;;;;;;;3.73;1.30;;;7.40;99.90;;;;;;5015872;28;20182;-79
2023/12/30 04:00:07;;;;;;;3.27;1.20;;;7.40;99.90;;;;;;5016733;28;20196;-79
2023/12/30 04:02:32;;;;;;;3.53;1.53;;;7.40;99.90;;;;;;5016054;28;20182;-79
2023/12/30 04:04:58;;;;;;;3.23;1.30;;;7.40;99.90;;;;;;5017030;28;20175;-80
2023/12/30 04:07:23;;;;;;;3.87;1.20;;;7.40;99.90;;;;;;5015403;28;20175;-79
2023/12/30 04:09:49;;;;;;;7.13;1.47;;;7.40;99.90;;;;;;5016330;28;20203;-79
2023/12/30 04:12:15;;;;;;;1.63;1.03;;;7.30;99.90;;;;;;5016720;28;20199;-79
2023/12/30 04:14:40;;;;;;;5.87;1.53;;;7.30;99.90;;;;;;5015710;28;20179;-79
2023/12/30 04:17:06;;;;;;;2.37;1.30;;;7.30;99.90;;;;;;5016795;28;20178;-79
2023/12/30 04:19:32;;;;;;;5.60;1.57;;;7.30;99.90;;;;;;5015476;28;20714;-79
2023/12/30 04:21:57;;;;;;;5.07;1.47;;;7.30;99.90;;;;;;5016463;28;20171;-79
2023/12/30 04:24:23;;;;;;;5.17;1.37;;;7.30;99.90;;;;;;5015864;28;20172;-79
2023/12/30 04:26:50;;;;;;;6.70;1.40;;;7.20;99.90;;;;;;5015344;28;20258;-79
2023/12/30 04:29:15;;;;;;;3.80;1.20;;;7.20;99.90;;;;;;5015147;28;20196;-80
2023/12/30 04:31:41;;;;;;;4.13;1.30;;;7.20;99.90;;;;;;5015228;28;20201;-79
2023/12/30 04:34:07;;;;;;;4.60;1.60;;;7.20;99.90;;;;;;5015302;28;20206;-79
2023/12/30 04:36:32;;;;;;;5.43;1.40;;;7.10;99.90;;;;;;5015462;28;20233;-79
2023/12/30 04:38:58;;;;;;;4.00;1.40;;;7.10;99.90;;;;;;5014999;28;20274;-79
2023/12/30 04:41:24;;;;;;;5.53;1.47;;;7.20;99.90;;;;;;5014485;28;20191;-79
2023/12/30 04:43:49;;;;;;;3.87;1.30;;;7.10;99.90;;;;;;5015054;28;20188;-79
2023/12/30 04:46:15;;;;;;;3.33;1.37;;;7.20;99.90;;;;;;5014920;28;20226;-78
2023/12/30 04:48:40;;;;;;;3.47;1.30;;;7.10;99.90;;;;;;5014848;28;20201;-79
2023/12/30 04:51:06;;;;;;;3.40;1.10;;;7.10;99.90;;;;;;5014962;28;20186;-79
2023/12/30 04:53:33;;;;;;;4.50;1.33;;;7.10;99.90;;;;;;5015208;28;20203;-79
2023/12/30 04:55:58;;;;;;;4.03;1.30;;;7.20;99.90;;;;;;5016571;28;20172;-79
2023/12/30 04:58:24;;;;;;;5.10;1.30;;;7.20;99.90;;;;;;5014510;28;20178;-79
2023/12/30 05:00:49;;;;;;;4.50;1.73;;;7.10;99.90;;;;;;5014024;28;20230;-80
2023/12/30 05:03:16;;;;;;;4.10;1.40;;;7.10;99.90;;;;;;5014872;28;20273;-79
2023/12/30 05:05:42;;;;;;;4.33;1.30;;;7.20;99.90;;;;;;5014778;28;20259;-80
2023/12/30 05:08:07;;;;;;;6.30;1.77;;;7.20;99.90;;;;;;5014701;28;20184;-79
2023/12/30 05:10:33;;;;;;;5.47;1.43;;;7.20;99.90;;;;;;5015003;28;20212;-79
2023/12/30 05:13:03;;;;;;;3.97;1.23;;;7.20;99.90;;;;;;5014945;28;20204;-79
2023/12/30 05:15:28;;;;;;;5.83;1.60;;;7.20;99.90;;;;;;5016101;28;20538;-78
2023/12/30 05:17:54;;;;;;;3.53;1.50;;;7.10;99.90;;;;;;5014963;28;20230;-79
2023/12/30 05:20:20;;;;;;;2.43;1.30;;;7.10;99.90;;;;;;5013939;28;20725;-79
2023/12/30 05:22:45;;;;;;;3.03;1.23;;;7.10;99.90;;;;;;5015519;28;20271;-79
2023/12/30 05:25:11;;;;;;;5.00;1.73;;;7.10;99.90;;;;;;5016510;28;20186;-79
2023/12/30 05:27:38;;;;;;;3.37;1.40;;;7.10;99.90;;;;;;5014839;28;20179;-79
2023/12/30 05:30:08;;;;;;;6.10;1.63;;;7.10;99.90;;;;;;5015091;28;20205;-79
2023/12/30 05:32:34;;;;;;;3.83;1.40;;;7.10;99.90;;;;;;5016017;28;20203;-79
2023/12/30 05:35:00;;;;;;;2.93;1.40;;;7.10;99.90;;;;;;5015915;28;20179;-79
2023/12/30 05:37:25;;;;;;;5.77;1.40;;;7.10;99.90;;;;;;5015556;28;20180;-79
2023/12/30 05:39:51;;;;;;;2.67;1.27;;;7.10;99.90;;;;;;5015870;28;20196;-79
2023/12/30 05:42:17;;;;;;;3.77;1.40;;;7.10;99.90;;;;;;5015592;28;20247;-79
2023/12/30 05:44:43;;;;;;;3.50;1.30;;;7.10;99.90;;;;;;5014373;28;20179;-79
2023/12/30 05:47:08;;;;;;;3.37;1.27;;;7.10;99.90;;;;;;5015221;28;20192;-79
2023/12/30 05:49:36;;;;;;;3.63;1.30;;;7.10;99.90;;;;;;5015449;28;20195;-79
2023/12/30 05:52:02;;;;;;;3.40;1.40;;;7.10;99.90;;;;;;5015175;28;20250;-79
2023/12/30 05:54:28;;;;;;;3.07;1.43;;;7.10;99.90;;;;;;5016306;28;20285;-79
2023/12/30 05:56:54;;;;;;;5.07;1.30;;;7.10;99.90;;;;;;5017107;28;20183;-79
2023/12/30 05:59:20;;;;;;;3.03;1.30;;;7.10;99.90;;;;;;5019317;28;20195;-79
2023/12/30 06:01:46;;;;;;;3.37;1.30;;;7.10;99.90;;;;;;5018295;28;20186;-79
2023/12/30 06:04:12;;;;;;;3.27;1.30;;;7.10;99.90;;;;;;5019188;28;20183;-79
2023/12/30 06:06:38;;;;;;;3.83;1.50;;;7.10;99.90;;;;;;5016465;28;20209;-79
2023/12/30 06:09:03;;;;;;;3.67;1.23;;;7.20;99.90;;;;;;5017205;28;20224;-77
2023/12/30 06:11:29;;;;;;;2.87;1.30;;;7.20;99.90;;;;;;5019098;28;20186;-80
2023/12/30 06:13:55;;;;;;;3.57;1.20;;;7.30;99.90;;;;;;5019846;28;20272;-81
2023/12/30 06:16:20;;;;;;;3.33;1.20;;;7.30;99.90;;;;;;5019551;28;20189;-81
2023/12/30 06:21:16;;;;;;;1.97;1.33;;;7.10;99.90;;;;;;5033663;28;20204;-83
2023/12/30 06:23:42;;;;;;;4.83;1.33;;;7.00;99.90;;;;;;5018372;28;20250;-84
2023/12/30 06:26:07;;;;;;;7.50;1.80;;;7.00;99.90;;;;;;5018982;28;20574;-82
2023/12/30 06:28:33;;;;;;;3.60;1.37;;;7.10;99.90;;;;;;5017748;28;20180;-82
2023/12/30 06:30:58;;;;;;;4.10;1.33;;;7.00;99.90;;;;;;5030701;28;20203;-83
2023/12/30 06:33:24;;;;;;;4.03;1.57;;;7.00;99.90;;;;;;4998684;28;20203;-83
2023/12/30 06:35:50;;;;;;;2.50;1.40;;;7.10;99.90;;;;;;4998437;28;20554;-83
2023/12/30 06:38:16;;;;;;;4.80;1.63;;;7.10;99.90;;;;;;4998518;28;20179;-84
2023/12/30 06:40:42;;;;;;;4.03;1.60;;;7.10;99.90;;;;;;5016095;28;20217;-85
2023/12/30 06:43:08;;;;;;;3.67;1.50;;;7.10;99.90;;;;;;4998098;28;20284;-82
2023/12/30 06:45:34;;;;;;;5.00;1.37;;;7.20;99.90;;;;;;4998187;28;20183;-84
2023/12/30 06:47:59;;;;;;;5.10;1.50;;;7.30;99.90;;;;;;5015626;28;20179;-83
2023/12/30 06:50:26;;;;;;;4.10;1.53;;;7.30;99.90;;;;;;4997986;28;20192;-81
2023/12/30 06:52:54;;;;;;;3.63;1.37;;;7.30;99.90;;;;;;5016315;28;20195;-86
2023/12/30 06:55:20;;;;;;;3.30;1.43;;;7.20;99.90;;;;;;4998231;28;20167;-84
2023/12/30 06:57:45;;;;;;;3.50;2.03;;;7.20;99.90;;;;;;4998640;28;20163;-84
2023/12/30 07:00:11;;;;;;;4.00;1.50;;;7.20;99.90;;;;;;5015511;28;20214;-85
2023/12/30 07:02:37;;;;;;;4.17;1.60;;;7.20;99.90;;;;;;4997733;28;20172;-84
2023/12/30 07:05:03;;;;;;;3.43;1.40;;;7.30;99.90;;;;;;5015118;28;20661;-85
2023/12/30 07:07:28;;;;;;;3.33;1.40;;;7.30;99.90;;;;;;5015357;28;20171;-85
2023/12/30 07:09:54;;;;;;;2.77;1.40;;;7.30;99.90;;;;;;4997829;28;20204;-82
2023/12/30 07:12:20;;;;;;;3.70;1.57;;;7.30;99.90;;;;;;4996754;28;20222;-83
2023/12/30 07:14:45;;;;;;;3.57;1.40;;;7.20;99.90;;;;;;5013837;28;20227;-83
2023/12/30 07:17:11;;;;;;;5.90;1.63;;;7.20;99.90;;;;;;4997611;28;20193;-82
2023/12/30 07:19:36;;;;;;;5.77;1.60;;;7.20;99.90;;;;;;4997510;28;20218;-84
2023/12/30 07:22:03;;;;;;;5.70;2.43;;;7.20;99.90;;;;;;4997992;28;20183;-83
2023/12/30 07:24:28;;;;;;;3.60;1.90;;;7.20;99.90;;;;;;5015869;28;20181;-84
2023/12/30 07:26:54;;;;;;;3.10;1.90;;;7.20;99.90;;;;;;5016076;28;20169;-84
2023/12/30 07:29:19;;;;;;;3.30;1.43;;;7.20;99.90;;;;;;4997901;28;20614;-84
2023/12/30 07:31:45;;;;;;;5.13;1.70;;;7.20;99.90;;;;;;5014990;28;20170;-81
2023/12/30 07:34:10;;;;;;;3.03;1.60;;;7.20;99.90;;;;;;4997933;28;20301;-87
2023/12/30 07:36:36;;;;;;;4.47;1.85;;;7.10;99.90;;;;;;4996877;28;20517;-86
2023/12/30 07:39:02;;;;;;;6.13;1.70;;;7.10;99.90;;;;;;5014195;28;20181;-85
2023/12/30 07:41:28;;;;;;;5.10;1.70;;;7.10;99.90;;;;;;4999102;28;20188;-84
2023/12/30 07:43:53;;;;;;;4.90;1.80;;;7.00;99.90;;;;;;4986754;28;20171;-85
2023/12/30 07:46:19;;;;;;;4.43;1.33;;;7.00;99.90;;;;;;4998065;28;20187;-81
2023/12/30 07:48:45;;;;;;;5.50;1.80;;;7.00;99.90;;;;;;4988986;28;20174;-82
2023/12/30 07:51:10;;;;;;;5.67;1.77;;;7.00;99.90;;;;;;5013026;28;20183;-84
2023/12/30 07:53:36;;;;;;;3.97;1.73;;;7.00;99.90;;;;;;4997032;28;20196;-81
2023/12/30 07:56:02;;;;;;;7.50;1.90;;;7.00;99.90;;;;;;4991852;28;20171;-84
2023/12/30 07:58:28;;;;;;;5.40;1.80;;;6.90;99.90;;;;;;4992224;28;20173;-84
2023/12/30 08:00:53;;;;;;;3.53;2.10;;;7.00;99.90;;;;;;4996368;28;20242;-83
2023/12/30 08:03:19;;;;;;;3.87;1.50;;;7.00;99.90;;;;;;4996384;28;20182;-84
2023/12/30 08:05:44;;;;;;;3.80;1.53;;;7.00;99.90;;;;;;5009737;28;20205;-84
2023/12/30 08:08:12;;;;;;;3.90;1.80;;;6.90;99.90;;;;;;5012656;28;20183;-85
2023/12/30 08:10:37;;;;;;;3.47;1.80;;;6.90;99.90;;;;;;5013925;28;20196;-86
2023/12/30 08:13:03;;;;;;;3.60;1.80;;;7.00;99.90;;;;;;4996040;28;20214;-86
2023/12/30 08:15:29;;;;;;;5.17;1.60;;;7.00;99.90;;;;;;5009697;28;20180;-91
2023/12/30 08:17:55;;;;;;;3.73;1.87;;;7.00;99.90;;;;;;5001496;28;20175;-87
2023/12/30 08:20:20;;;;;;;4.47;1.40;;;7.00;99.90;;;;;;4985184;28;20276;-86
2023/12/30 08:22:46;;;;;;;3.73;1.47;;;7.10;99.90;;;;;;4994108;28;20230;-88
2023/12/30 08:25:13;;;;;;;4.60;1.80;;;7.20;99.90;;;;;;4986244;28;20261;-84
2023/12/30 08:27:38;;;;;;;2.73;1.20;;;7.10;99.90;;;;;;5013960;28;20194;-81
2023/12/30 08:30:05;;;;;;;3.47;1.40;;;7.20;99.90;;;;;;5013778;28;20208;-83
2023/12/30 08:32:31;;;;;;;5.93;1.83;;;7.20;99.90;;;;;;4992197;28;20191;-80
2023/12/30 08:34:57;;;;;;;5.37;1.60;;;7.30;99.90;;;;;;4995261;28;20185;-87
2023/12/30 08:37:23;;;;;;;3.70;1.40;;;7.30;99.90;;;;;;5013274;28;20194;-82
2023/12/30 08:39:49;;;;;;;1.77;1.20;;;7.40;99.90;;;;;;5000727;28;20283;-83
2023/12/30 08:42:15;;;;;;;4.57;1.30;;;7.30;99.90;;;;;;4994253;28;20282;-87
2023/12/30 08:44:43;;;;;;;4.13;1.30;;;7.40;99.90;;;;;;5008485;28;20183;-82
2023/12/30 08:47:09;;;;;;;2.37;1.10;;;7.50;99.90;;;;;;5013801;28;20181;-85
2023/12/30 08:49:35;;;;;;;2.83;1.50;;;7.50;99.90;;;;;;4995775;28;20204;-83
2023/12/30 08:52:01;;;;;;;3.43;1.17;;;7.50;99.90;;;;;;4995454;28;20175;-83
2023/12/30 08:54:27;;;;;;;3.80;1.40;;;7.50;99.90;;;;;;4995367;28;20176;-84
2023/12/30 08:56:53;;;;;;;5.57;1.30;;;7.50;99.90;;;;;;5013385;28;20172;-84
2023/12/30 08:59:20;;;;;;;2.13;1.60;;;7.60;99.90;;;;;;4994862;28;20192;-83
2023/12/30 09:01:45;;;;;;;3.47;1.23;;;7.60;99.90;;;;;;5013142;28;20177;-80
2023/12/30 09:04:11;;;;;;;6.17;1.27;;;7.70;99.90;;;;;;5012424;28;20183;-83
2023/12/30 09:06:37;;;;;;;3.53;1.30;;;7.70;99.90;;;;;;4995721;28;20260;-80
2023/12/30 09:09:04;;;;;;;3.90;1.70;;;7.80;99.90;;;;;;4992958;28;20173;-82
2023/12/30 09:11:32;;;;;;;7.07;2.23;;;7.90;99.90;;;;;;4995301;28;20331;-84
2023/12/30 09:13:59;;;;;;;4.07;1.63;;;7.90;99.90;;;;;;4993291;28;20291;-81
2023/12/30 09:16:24;;;;;;;5.30;1.90;;;8.00;99.90;;;;;;5008591;28;20189;-85
2023/12/30 09:18:50;;;;;;;3.00;1.47;;;8.10;99.90;;;;;;4993332;28;20179;-85
2023/12/30 09:21:16;;;;;;;4.30;1.37;;;8.10;99.90;;;;;;5011559;28;20198;-84
2023/12/30 09:23:41;;;;;;;4.13;1.73;;;8.10;99.90;;;;;;5011887;28;20321;-84
2023/12/30 09:26:07;;;;;;;4.93;1.80;;;8.10;99.90;;;;;;5011980;28;20180;-84
2023/12/30 09:28:33;;;;;;;3.70;1.30;;;8.20;99.90;;;;;;5015624;28;20184;-82
2023/12/30 09:30:59;;;;;;;4.00;1.40;;;8.20;99.90;;;;;;5016286;28;20260;-84
2023/12/30 09:33:25;;;;;;;3.53;1.93;;;8.20;99.90;;;;;;5016765;28;20221;-85
2023/12/30 09:35:54;;;;;;;6.33;1.60;;;8.20;99.90;;;;;;5016650;28;20170;-84
2023/12/30 09:38:23;;;;;;;5.43;1.73;;;8.10;99.90;;;;;;5016426;28;20237;-84
2023/12/30 09:40:50;;;;;;;3.47;1.50;;;8.10;99.90;;;;;;4998820;28;20201;-82
2023/12/30 09:43:22;;;;;;;3.77;1.70;;;8.10;99.90;;;;;;4998910;28;20185;-84
2023/12/30 09:45:50;;;;;;;6.17;2.20;;;8.10;99.90;;;;;;5016436;28;20163;-84
2023/12/30 09:48:19;;;;;;;2.60;1.20;;;8.10;99.90;;;;;;5016996;28;20181;-84
2023/12/30 09:50:45;;;;;;;7.27;2.60;;;8.00;99.90;;;;;;5016868;28;20677;-84
2023/12/30 09:53:10;;;;;;;4.23;1.30;;;8.10;99.90;;;;;;5016803;28;20216;-84
2023/12/30 09:55:36;;;;;;;5.30;1.90;;;8.20;1.00;;;;;;5017102;28;20182;-84
2023/12/30 09:58:01;;;;;;;5.60;1.70;;;8.30;1.00;;;;;;5016670;28;20321;-84
2023/12/30 10:00:28;;;;;;;5.67;2.30;;;8.30;1.00;;;;;;5016317;28;20205;-84
2023/12/30 10:02:54;;;;;;;3.23;1.43;;;8.30;1.00;;;;;;4999027;28;20770;-84
2023/12/30 10:05:19;;;;;;;5.30;2.67;;;8.20;1.00;;;;;;5016933;28;20219;-84
2023/12/30 10:07:46;;;;;;;4.80;2.33;;;8.20;34.50;;;;;;4998816;28;20214;-84
2023/12/30 10:10:11;;;;;;;2.80;1.10;;;8.30;24.60;;;;;;4998829;28;20215;-84
2023/12/30 10:12:37;;;;;;;3.93;1.30;;;8.30;1.00;;;;;;5016570;28;20209;-85
2023/12/30 10:15:04;;;;;;;2.17;0.93;;;8.40;1.00;;;;;;4998993;28;20182;-84
2023/12/30 10:17:29;;;;;;;3.63;1.60;;;8.40;1.00;;;;;;4998634;28;20201;-84
2023/12/30 10:19:56;;;;;;;2.97;1.30;;;8.30;76.30;;;;;;5016046;28;20233;-85
2023/12/30 10:22:23;;;;;;;3.83;1.43;;;8.40;99.90;;;;;;4998862;28;20185;-84
2023/12/30 10:24:48;;;;;;;4.23;2.00;;;8.40;99.90;;;;;;4998689;28;20270;-84
2023/12/30 10:27:15;;;;;;;6.37;1.80;;;8.50;99.90;;;;;;5016369;28;20209;-84
2023/12/30 10:29:40;;;;;;;3.57;1.50;;;8.60;99.90;;;;;;4998218;28;20234;-84
2023/12/30 10:32:08;;;;;;;4.67;2.17;;;8.60;99.90;;;;;;4998133;28;20203;-84
2023/12/30 10:34:35;;;;;;;2.70;1.70;;;8.60;99.90;;;;;;4998702;28;20201;-84
2023/12/30 10:37:02;;;;;;;3.93;1.63;;;8.50;99.90;;;;;;4997976;28;20232;-84
2023/12/30 10:39:29;;;;;;;4.93;1.60;;;8.50;99.90;;;;;;5014996;28;20248;-85
2023/12/30 10:41:57;;;;;;;3.73;1.70;;;8.40;99.90;;;;;;5015925;28;20184;-84
2023/12/30 10:44:22;;;;;;;5.73;1.70;;;8.50;99.90;;;;;;5016043;28;20193;-84
2023/12/30 10:46:49;;;;;;;5.43;1.87;;;8.50;99.90;;;;;;4998190;28;20182;-84
2023/12/30 10:49:21;;;;;;;5.17;1.53;;;8.50;99.90;;;;;;5016487;28;20197;-84
2023/12/30 10:51:49;;;;;;;6.37;1.70;;;8.60;99.90;;;;;;5016247;28;20179;-84
2023/12/30 10:54:26;;;;;;;3.87;1.63;;;8.60;99.90;;;;;;4997941;28;20213;-84
2023/12/30 10:57:05;;;;;;;3.03;1.20;;;8.80;99.90;;;;;;4998349;28;20181;-84
2023/12/30 10:59:30;;;;;;;5.17;1.77;;;8.80;99.90;;;;;;4998050;28;20199;-84
2023/12/30 11:01:56;;;;;;;4.53;1.60;;;8.70;99.90;;;;;;5015246;28;20179;-84
2023/12/30 11:04:22;;;;;;;6.33;1.50;;;8.70;99.90;;;;;;5015342;28;20299;-84
2023/12/30 11:06:56;;;;;;;3.57;1.43;;;8.70;99.90;;;;;;4997644;28;20569;-84
2023/12/30 11:09:29;;;;;;;8.47;1.50;;;8.70;99.90;;;;;;5015050;28;20592;-84
2023/12/30 11:12:00;;;;;;;4.73;1.70;;;8.70;99.90;;;;;;4997745;28;20234;-84
2023/12/30 11:14:25;;;;;;;6.67;1.50;;;8.70;99.90;;;;;;5015409;28;20178;-84
2023/12/30 11:16:51;;;;;;;4.83;1.53;;;8.90;99.90;;;;;;4997685;28;20599;-82
2023/12/30 11:19:30;;;;;;;4.50;1.30;;;9.00;99.90;;;;;;4997465;28;20305;-82
2023/12/30 11:21:58;;;;;;;2.27;1.23;;;9.00;74.10;;;;;;4997019;28;20277;-84
2023/12/30 11:24:26;;;;;;;4.10;1.30;;;8.90;86.70;;;;;;4997244;28;20214;-84
2023/12/30 11:26:53;;;;;;;5.20;3.33;;;8.90;67.60;;;;;;4997479;28;20218;-81
2023/12/30 11:29:25;;;;;;;5.40;2.93;;;8.90;54.20;;;;;;5015012;28;20191;-85
2023/12/30 11:31:52;;;;;;;5.60;2.40;;;8.80;99.90;;;;;;5014926;28;20247;-83
2023/12/30 11:34:19;;;;;;;7.30;2.90;;;8.80;91.00;;;;;;5015026;28;20281;-83
2023/12/30 11:36:49;;;;;;;4.93;1.93;;;8.80;99.90;;;;;;5017048;28;20189;-85
2023/12/30 11:39:30;;;;;;;5.03;2.00;;;8.70;99.90;;;;;;5014767;28;20195;-84
2023/12/30 11:42:00;;;;;;;3.93;1.80;;;8.70;99.90;;;;;;4997251;28;20221;-85
2023/12/30 11:44:27;;;;;;;5.97;2.00;;;8.80;99.90;;;;;;4997465;28;20229;-85
2023/12/30 11:46:53;;;;;;;5.10;1.97;;;8.80;99.90;;;;;;5016477;28;20519;-85
2023/12/30 11:49:22;;;;;;;6.30;1.90;;;8.80;99.90;;;;;;4997096;28;20194;-82
2023/12/30 11:51:48;;;;;;;6.63;2.00;;;8.80;99.90;;;;;;4996631;28;20726;-84
2023/12/30 11:54:14;;;;;;;4.10;1.80;;;9.00;99.90;;;;;;4995045;28;20207;-84
2023/12/30 11:56:41;;;;;;;5.20;1.87;;;9.10;99.90;;;;;;4995010;28;20186;-84
2023/12/30 11:59:08;;;;;;;3.33;1.40;;;9.40;73.80;;;;;;4993833;28;20188;-81
2023/12/30 12:01:33;;;;;;;5.03;1.47;;;9.40;1.00;;;;;;4993394;28;20198;-86
2023/12/30 12:03:59;;;;;;;4.33;1.60;;;9.60;1.00;;;;;;4993893;28;20183;-86
2023/12/30 12:06:24;;;;;;;3.73;1.97;;;10.00;1.00;;;;;;4993987;28;20269;-85
2023/12/30 12:08:50;;;;;;;7.87;1.63;;;10.10;99.90;;;;;;4993675;28;20675;-85
2023/12/30 12:11:16;;;;;;;4.27;1.37;;;10.00;1.00;;;;;;4993129;28;20188;-86
2023/12/30 12:13:42;;;;;;;7.33;1.67;;;10.00;91.50;;;;;;4993160;28;20407;-86
2023/12/30 12:16:07;;;;;;;2.60;1.40;;;10.00;1.00;;;;;;4993632;28;20176;-84
2023/12/30 12:18:33;;;;;;;2.97;1.60;;;10.00;1.00;;;;;;4994792;28;20527;-84
2023/12/30 12:21:03;;;;;;;3.13;1.40;;;9.90;99.90;;;;;;5085125;22;20252;-81
2023/12/30 12:23:30;;;;;;;4.00;1.43;;;9.90;1.00;;;;;;5035332;28;20176;-82
2023/12/30 12:25:57;;;;;;;3.97;1.30;;;9.90;99.90;;;;;;5052859;28;20180;-82
2023/12/30 12:28:23;;;;;;;4.17;1.57;;;9.80;1.00;;;;;;5052795;28;20178;-82
2023/12/30 12:30:49;;;;;;;3.30;1.60;;;9.70;1.00;;;;;;5066693;28;20212;-82
2023/12/30 12:33:17;;;;;;;6.60;1.80;;;9.70;99.90;;;;;;5072507;28;20279;-81
2023/12/30 12:35:44;;;;;;;4.00;1.47;;;9.70;99.60;;;;;;5054746;28;20168;-81
2023/12/30 12:38:10;;;;;;;4.43;1.60;;;9.60;1.00;;;;;;5054729;28;20237;-81
2023/12/30 12:40:35;;;;;;;4.17;1.60;;;9.60;99.90;;;;;;5072770;28;20189;-81
2023/12/30 12:43:01;;;;;;;5.83;1.60;;;9.50;99.90;;;;;;5050441;28;20182;-82
2023/12/30 12:45:27;;;;;;;3.47;1.60;;;9.60;99.90;;;;;;5064237;28;20165;-82
2023/12/30 12:47:52;;;;;;;4.17;1.43;;;9.50;99.90;;;;;;5046256;28;20173;-82
2023/12/30 12:50:18;;;;;;;2.63;1.40;;;9.40;99.90;;;;;;5035585;28;20198;-81
2023/12/30 12:52:44;;;;;;;4.90;2.23;;;9.50;1.00;;;;;;5034396;28;20193;-82
2023/12/30 12:55:09;;;;;;;4.00;1.53;;;9.50;1.00;;;;;;5034796;28;20170;-81